createdAt,value
2022-10-26T04:02:30.747Z,6.15
2022-10-26T04:06:33.393Z,13.05
2022-10-26T04:10:36.054Z,8.67
2022-10-26T04:14:38.593Z,6.57
2022-10-26T04:18:42.512Z,10.50
2022-10-26T04:22:45.146Z,11.20
2022-10-26T04:26:47.872Z,8.33
2022-10-26T04:30:50.545Z,10.40
2022-10-26T04:34:54.630Z,12.73
2022-10-26T04:38:57.222Z,9.70
2022-10-26T04:43:00.388Z,10.30
2022-10-26T04:47:02.971Z,6.80
2022-10-26T04:51:06.964Z,6.80
2022-10-26T04:55:09.616Z,8.25
2022-10-26T04:59:12.217Z,14.83
2022-10-26T05:03:14.798Z,8.43
2022-10-26T05:07:18.715Z,15.50
2022-10-26T05:11:21.301Z,7.82
2022-10-26T05:15:24.438Z,10.02
2022-10-26T05:19:26.994Z,5.63
2022-10-26T05:23:30.973Z,8.63
2022-10-26T05:27:33.630Z,5.68
2022-10-26T05:31:36.281Z,6.30
2022-10-26T05:35:39.217Z,5.43
2022-10-26T05:39:43.715Z,9.60
2022-10-26T05:43:48.490Z,10.68
2022-10-26T05:47:51.406Z,12.38
2022-10-26T05:51:54.190Z,9.10
2022-10-26T05:55:58.838Z,12.80
2022-10-26T06:00:02.009Z,8.82
2022-10-26T06:04:27.254Z,6.10
2022-10-26T06:08:30.750Z,10.70
2022-10-26T06:16:48.012Z,7.95
2022-10-26T06:20:58.736Z,9.10
2022-10-26T06:25:08.778Z,6.63
2022-10-26T06:29:23.461Z,7.63
2022-10-26T06:33:29.916Z,7.40
2022-10-26T06:37:33.511Z,12.18
2022-10-26T06:41:37.518Z,10.25
2022-10-26T06:45:46.387Z,15.07
2022-10-26T06:49:59.717Z,7.93
2022-10-26T06:54:09.588Z,7.68
2022-10-26T06:58:16.627Z,9.40
2022-10-26T07:02:21.312Z,6.65
2022-10-26T07:06:24.026Z,8.00
2022-10-26T07:10:26.659Z,6.27
2022-10-26T07:14:29.311Z,14.77
2022-10-26T07:18:33.451Z,9.18
2022-10-26T07:22:36.056Z,10.73
2022-10-26T07:26:38.612Z,13.48
2022-10-26T07:30:41.504Z,11.67
2022-10-26T07:34:45.476Z,11.20
2022-10-26T07:38:48.102Z,13.63
2022-10-26T07:42:50.868Z,11.40
2022-10-26T07:46:53.543Z,11.18
2022-10-26T07:50:57.714Z,13.00
2022-10-26T07:55:00.293Z,13.55
2022-10-26T07:59:02.893Z,9.43
2022-10-26T08:03:05.477Z,10.97
2022-10-26T08:07:09.397Z,8.47
2022-10-26T08:11:12.006Z,10.52
2022-10-26T08:15:14.673Z,10.70
2022-10-26T08:19:17.254Z,10.03
2022-10-26T08:23:21.259Z,9.10
2022-10-26T08:27:23.975Z,11.70
2022-10-26T08:31:26.630Z,8.30
2022-10-26T08:35:29.443Z,14.67
2022-10-26T08:39:33.486Z,8.55
2022-10-26T08:43:41.875Z,4.80
2022-10-26T08:47:48.836Z,4.60
2022-10-26T08:51:55.968Z,9.43
2022-10-26T08:56:04.952Z,10.05
2022-10-26T09:00:12.283Z,6.72
2022-10-26T09:04:14.912Z,10.55
2022-10-26T09:08:26.638Z,9.47
2022-10-26T09:12:41.811Z,7.22
2022-10-26T09:16:55.722Z,7.88
2022-10-26T09:21:08.192Z,6.28
2022-10-26T09:25:19.518Z,6.68
2022-10-26T09:29:28.639Z,10.30
2022-10-26T09:33:36.308Z,9.55
2022-10-26T09:37:45.101Z,5.75
2022-10-26T09:41:53.538Z,7.93
2022-10-26T09:45:57.568Z,7.28
2022-10-26T09:50:08.009Z,7.03
2022-10-26T09:54:16.282Z,4.90
2022-10-26T09:58:24.188Z,4.25
2022-10-26T10:02:40.125Z,6.57
2022-10-26T10:06:44.369Z,6.95
2022-10-26T10:10:56.101Z,5.78
2022-10-26T10:15:00.535Z,6.07
2022-10-26T10:19:04.595Z,5.60
2022-10-26T10:23:07.305Z,2.25
2022-10-26T10:27:18.826Z,4.38
2022-10-26T10:31:23.599Z,6.75
2022-10-26T10:35:31.392Z,3.65
2022-10-26T10:39:39.918Z,3.00
2022-10-26T10:43:46.151Z,3.53
2022-10-26T10:48:01.704Z,6.88
2022-10-26T10:52:05.773Z,3.67
2022-10-26T10:56:28.206Z,5.07
2022-10-26T11:00:34.476Z,4.13
2022-10-26T11:04:53.939Z,3.25
2022-10-26T11:09:03.851Z,2.95
2022-10-26T11:13:16.435Z,4.78
2022-10-26T11:17:23.043Z,2.23
2022-10-26T11:21:29.925Z,7.22
2022-10-26T11:25:38.372Z,4.82
2022-10-26T11:29:48.842Z,3.38
2022-10-26T11:34:07.248Z,6.05
2022-10-26T11:38:23.903Z,3.42
2022-10-26T11:42:42.932Z,7.97
2022-10-26T11:46:50.719Z,3.30
2022-10-26T11:50:57.798Z,5.70
2022-10-26T11:55:02.230Z,7.25
2022-10-26T11:59:07.221Z,3.70
2022-10-26T12:03:14.629Z,2.67
2022-10-26T12:07:25.628Z,4.45
2022-10-26T12:11:43.022Z,5.82
2022-10-26T12:16:02.930Z,3.15
2022-10-26T12:20:24.599Z,3.65
2022-10-26T12:24:30.615Z,4.07
2022-10-26T12:28:42.831Z,4.13
2022-10-26T12:32:56.430Z,2.83
2022-10-26T12:37:23.119Z,4.45
2022-10-26T12:41:27.342Z,4.15
2022-10-26T12:45:29.925Z,4.57
2022-10-26T12:50:02.306Z,5.28
2022-10-26T12:54:22.983Z,7.70
2022-10-26T12:59:04.910Z,2.40
2022-10-26T13:03:23.647Z,3.88
2022-10-26T13:07:28.527Z,4.70
2022-10-26T13:11:35.538Z,5.00
2022-10-26T13:15:40.597Z,4.05
2022-10-26T13:19:48.005Z,3.67
2022-10-26T13:24:01.499Z,2.40
2022-10-26T13:28:27.382Z,3.58
2022-10-26T13:32:30.732Z,6.10
2022-10-26T13:36:37.998Z,6.15
2022-10-26T13:40:41.291Z,4.63
2022-10-26T13:48:50.917Z,4.63
2022-10-26T13:52:56.491Z,5.22
2022-10-26T13:57:06.991Z,5.13
2022-10-26T14:01:18.023Z,4.30
2022-10-26T14:05:20.711Z,7.10
2022-10-26T14:09:24.024Z,3.75
2022-10-26T14:13:29.710Z,4.50
2022-10-26T14:17:34.398Z,6.80
2022-10-26T14:21:43.015Z,6.03
2022-10-26T14:25:58.938Z,6.30
2022-10-26T14:30:21.446Z,6.38
2022-10-26T14:34:26.396Z,4.00
2022-10-26T14:38:35.478Z,5.22
2022-10-26T14:42:44.778Z,6.70
2022-10-26T14:46:48.181Z,2.85
2022-10-26T14:51:02.752Z,3.60
2022-10-26T14:55:14.496Z,9.20
2022-10-26T14:59:23.058Z,4.88
2022-10-26T15:03:25.987Z,7.65
2022-10-26T15:07:37.681Z,5.47
2022-10-26T15:11:44.700Z,7.18
2022-10-26T15:15:49.882Z,4.13
2022-10-26T15:19:53.923Z,6.88
2022-10-26T15:23:59.142Z,8.30
2022-10-26T15:28:10.840Z,7.63
2022-10-26T15:32:29.082Z,9.27
2022-10-26T15:36:33.457Z,9.18
2022-10-26T15:40:43.377Z,6.55
2022-10-26T15:44:46.298Z,5.53
2022-10-26T15:48:54.959Z,5.38
2022-10-26T15:53:01.825Z,4.80
2022-10-26T16:01:16.801Z,9.60
2022-10-26T16:05:19.522Z,9.25
2022-10-26T16:09:22.153Z,7.90
2022-10-26T16:13:26.605Z,9.52
2022-10-26T16:17:29.345Z,12.43
2022-10-26T16:21:32.038Z,6.30
2022-10-26T16:25:42.907Z,16.67
2022-10-26T16:29:46.830Z,9.32
2022-10-26T16:33:49.575Z,6.18
2022-10-26T16:37:52.195Z,8.10
2022-10-26T16:41:54.835Z,8.13
2022-10-26T16:45:58.852Z,8.63
2022-10-26T16:50:01.472Z,7.72
2022-10-26T16:54:04.228Z,6.07
2022-10-26T16:58:08.019Z,10.90
2022-10-26T17:02:14.646Z,6.28
2022-10-26T17:06:18.449Z,16.40
2022-10-26T17:10:21.066Z,7.47
2022-10-26T17:14:23.683Z,11.00
2022-10-26T17:18:27.732Z,7.00
2022-10-26T17:22:30.312Z,13.38
2022-10-26T17:26:33.057Z,15.37
2022-10-26T17:30:36.083Z,9.35
2022-10-26T17:34:40.027Z,14.73
2022-10-26T17:38:43.403Z,18.27
2022-10-26T17:46:48.554Z,22.55
2022-10-26T17:50:52.650Z,18.00
2022-10-26T17:54:58.057Z,16.35
2022-10-26T17:59:05.688Z,11.90
2022-10-26T18:03:08.406Z,7.88
2022-10-26T18:07:12.494Z,18.27
2022-10-26T18:11:19.072Z,17.25
2022-10-26T18:15:24.763Z,14.68
2022-10-26T18:19:27.465Z,12.20
2022-10-26T18:23:31.459Z,8.10
2022-10-26T18:27:34.052Z,11.20
2022-10-26T18:31:36.757Z,10.40
2022-10-26T18:35:39.379Z,12.75
2022-10-26T18:39:43.318Z,6.83
2022-10-26T18:43:49.247Z,13.43
2022-10-26T18:47:52.192Z,16.50
2022-10-26T18:51:55.177Z,10.95
2022-10-26T18:56:02.616Z,9.63
2022-10-26T19:00:05.992Z,8.23
2022-10-26T19:04:10.336Z,13.68
2022-10-26T19:08:12.942Z,20.67
2022-10-26T19:12:16.962Z,21.63
2022-10-26T19:16:40.715Z,16.02
2022-10-26T19:20:46.611Z,13.80
2022-10-26T19:24:50.300Z,16.08
2022-10-26T19:28:57.346Z,16.47
2022-10-26T19:33:00.754Z,19.17
2022-10-26T19:37:05.209Z,16.02
2022-10-26T19:45:12.527Z,20.37
2022-10-26T19:49:17.384Z,14.95
2022-10-26T19:53:21.325Z,17.85
2022-10-26T19:57:23.916Z,16.15
2022-10-26T20:01:28.350Z,20.97
2022-10-26T20:05:31.585Z,25.63
2022-10-26T20:09:34.364Z,20.92
2022-10-26T20:13:37.610Z,20.05
2022-10-26T20:21:49.169Z,16.75
2022-10-26T20:25:52.810Z,13.37
2022-10-26T20:29:55.448Z,19.25
2022-10-26T20:33:59.385Z,13.03
2022-10-26T20:38:02.827Z,12.63
2022-10-26T20:46:11.484Z,19.80
2022-10-26T20:50:16.839Z,15.45
2022-10-26T20:54:24.954Z,12.48
2022-10-26T20:58:40.753Z,18.45
